Terminal Aerodrome Forecast
Issued by NWS Burlington, VT

Home | Current Version | Previous Version | Text Only | Print | Product List | Glossary On
Versions: 1 2 3 4 5 6 7 8 9 10 11 12 13 14
000
FTUS41 KBTV 020743 AAA
TAFBTV
TAF AMD
KBTV 020743Z 0208/0306 20010KT 5SM -SHSN BR OVC035
      TEMPO 0208/0212 2SM -SHSN OVC025
     FM021300 30015G26KT P6SM VCSH OVC040
     FM021800 30018G28KT P6SM BKN060
     FM030300 33009KT P6SM BKN250=

USA.gov is the U.S. government's official web portal to all federal, state and local government web resources and services.